Time;durP1;ratioP1;P1;durP2;ratioP2;P2;SDS_P1;SDS_P2;PMS_P1;PMS_P2;Temp;Humidity;BMP_temperature;BMP_pressure;BME280_temperature;BME280_humidity;BME280_pressure;Samples;Min_cycle;Max_cycle;Signal;HPM_P1;HPM_P2
2024/01/08 00:01:02;;;;;;;;;;;;;;;;;;5096423;28;765;-67
2024/01/08 00:03:27;;;;;;;;;;;;;;;;;;5095782;28;876;-67
2024/01/08 00:05:53;;;;;;;;;;;;;;;;;;5096171;28;1972;-67
2024/01/08 00:08:18;;;;;;;;;;;;;;;;;;5095554;28;908;-68
2024/01/08 00:10:43;;;;;;;;;;;;;;;;;;5095718;28;1046;-67
2024/01/08 00:13:09;;;;;;;;;;;;;;;;;;5096407;28;848;-67
2024/01/08 00:15:34;;;;;;;;;;;;;;;;;;5096346;28;949;-67
2024/01/08 00:18:00;;;;;;;;;;;;;;;;;;5095630;28;948;-68
2024/01/08 00:20:25;;;;;;;;;;;;;;;;;;5095592;28;1003;-67
2024/01/08 00:22:50;;;;;;;;;;;;;;;;;;5095783;28;833;-67
2024/01/08 00:25:15;;;;;;;;;;;;;;;;;;5095580;28;991;-67
2024/01/08 00:27:41;;;;;;;;;;;;;;;;;;5095609;28;1890;-68
2024/01/08 00:30:07;;;;;;;;;;;;;;;;;;5095016;28;859;-68
2024/01/08 00:32:32;;;;;;;;;;;;;;;;;;5095287;28;874;-67
2024/01/08 00:34:58;;;;;;;;;;;;;;;;;;5094226;28;911;-67
2024/01/08 00:37:23;;;;;;;;;;;;;;;;;;5095312;28;836;-67
2024/01/08 00:39:48;;;;;;;;;;;;;;;;;;5095354;28;899;-68
2024/01/08 00:42:13;;;;;;;;;;;;;;;;;;5095266;28;1042;-67
2024/01/08 00:44:38;;;;;;;;;;;;;;;;;;5094949;28;1022;-66
2024/01/08 00:47:04;;;;;;;;;;;;;;;;;;5094340;28;1905;-67
2024/01/08 00:49:29;;;;;;;;;;;;;;;;;;5094605;28;966;-67
2024/01/08 00:51:54;;;;;;;;;;;;;;;;;;5095369;28;919;-67
2024/01/08 00:54:20;;;;;;;;;;;;;;;;;;5094824;28;1001;-66
2024/01/08 00:56:45;;;;;;;;;;;;;;;;;;5094786;28;1046;-67
2024/01/08 00:59:10;;;;;;;;;;;;;;;;;;5094736;28;1006;-67
2024/01/08 01:01:36;;;;;;;;;;;;;;;;;;5095263;28;971;-67
2024/01/08 01:04:01;;;;;;;;;;;;;;;;;;5093465;28;1134;-67
2024/01/08 01:06:27;;;;;;;;;;;;;;;;;;5094804;28;1906;-66
2024/01/08 01:08:52;;;;;;;;;;;;;;;;;;5094671;28;967;-67
2024/01/08 01:11:17;;;;;;;;;;;;;;;;;;5094922;28;920;-67
2024/01/08 01:13:42;;;;;;;;;;;;;;;;;;5094730;28;805;-66
2024/01/08 01:16:08;;;;;;;;;;;;;;;;;;5093933;28;864;-67
2024/01/08 01:18:33;;;;;;;;;;;;;;;;;;5094853;28;1198;-67
2024/01/08 01:20:58;;;;;;;;;;;;;;;;;;5094999;28;841;-67
2024/01/08 01:23:23;;;;;;;;;;;;;;;;;;5094645;28;958;-67
2024/01/08 01:25:49;;;;;;;;;;;;;;;;;;5093405;28;1960;-67
2024/01/08 01:28:14;;;;;;;;;;;;;;;;;;5094460;28;836;-67
2024/01/08 01:30:39;;;;;;;;;;;;;;;;;;5094445;28;1098;-67
2024/01/08 01:33:05;;;;;;;;;;;;;;;;;;5094476;28;896;-67
2024/01/08 01:35:30;;;;;;;;;;;;;;;;;;5094367;28;983;-68
2024/01/08 01:37:58;;;;;;;;;;;;;;;;;;5093426;28;905;-68
2024/01/08 01:40:23;;;;;;;;;;;;;;;;;;5093619;28;824;-66
2024/01/08 01:42:49;;;;;;;;;;;;;;;;;;5092521;28;939;-66
2024/01/08 01:45:14;;;;;;;;;;;;;;;;;;5093749;28;1157;-67
2024/01/08 01:47:40;;;;;;;;;;;;;;;;;;5093877;28;1889;-68
2024/01/08 01:50:07;;;;;;;;;;;;;;;;;;5092539;28;1049;-68
2024/01/08 01:52:33;;;;;;;;;;;;;;;;;;5094042;28;986;-67
2024/01/08 01:54:59;;;;;;;;;;;;;;;;;;5093706;28;925;-67
2024/01/08 01:57:24;;;;;;;;;;;;;;;;;;5094508;28;879;-68
2024/01/08 01:59:49;;;;;;;;;;;;;;;;;;5093756;28;983;-68
2024/01/08 02:02:14;;;;;;;;;;;;;;;;;;5093778;28;825;-67
2024/01/08 02:04:40;;;;;;;;;;;;;;;;;;5093736;28;813;-68
2024/01/08 02:07:06;;;;;;;;;;;;;;;;;;5094051;28;1910;-68
2024/01/08 02:09:31;;;;;;;;;;;;;;;;;;5094192;28;868;-67
2024/01/08 02:11:56;;;;;;;;;;;;;;;;;;5093704;28;813;-67
2024/01/08 02:14:22;;;;;;;;;;;;;;;;;;5093834;28;1010;-67
2024/01/08 02:16:48;;;;;;;;;;;;;;;;;;5093448;28;958;-67
2024/01/08 02:19:13;;;;;;;;;;;;;;;;;;5093679;28;976;-69
2024/01/08 02:21:38;;;;;;;;;;;;;;;;;;5094438;28;797;-66
2024/01/08 02:24:04;;;;;;;;;;;;;;;;;;5092635;28;808;-67
2024/01/08 02:26:29;;;;;;;;;;;;;;;;;;5093613;28;1968;-67
2024/01/08 02:28:55;;;;;;;;;;;;;;;;;;5093475;28;884;-67
2024/01/08 02:31:20;;;;;;;;;;;;;;;;;;5093315;28;958;-68
2024/01/08 02:33:46;;;;;;;;;;;;;;;;;;5093750;28;861;-68
2024/01/08 02:36:11;;;;;;;;;;;;;;;;;;5093756;28;879;-66
2024/01/08 02:38:36;;;;;;;;;;;;;;;;;;5093657;28;864;-67
2024/01/08 02:41:01;;;;;;;;;;;;;;;;;;5093424;28;1082;-67
2024/01/08 02:43:27;;;;;;;;;;;;;;;;;;5093521;28;839;-67
2024/01/08 02:45:52;;;;;;;;;;;;;;;;;;5093417;28;1905;-67
2024/01/08 02:48:17;;;;;;;;;;;;;;;;;;5093149;28;900;-67
2024/01/08 02:50:43;;;;;;;;;;;;;;;;;;5093711;28;999;-67
2024/01/08 02:53:08;;;;;;;;;;;;;;;;;;5096038;28;915;-66
2024/01/08 02:55:33;;;;;;;;;;;;;;;;;;5097340;28;1073;-67
2024/01/08 02:58:02;;;;;;;;;;;;;;;;;;5097448;28;967;-67
2024/01/08 03:00:27;;;;;;;;;;;;;;;;;;5097521;28;931;-68
2024/01/08 03:02:52;;;;;;;;;;;;;;;;;;5097456;28;817;-67
2024/01/08 03:05:18;;;;;;;;;;;;;;;;;;5097333;28;1034;-67
2024/01/08 03:07:43;;;;;;;;;;;;;;;;;;5096474;28;1973;-68
2024/01/08 03:10:08;;;;;;;;;;;;;;;;;;5073688;28;1167;-67
2024/01/08 03:12:33;;;;;;;;;;;;;;;;;;5073523;28;1168;-67
2024/01/08 03:14:59;;;;;;;;;;;;;;;;;;5089637;28;1183;-68
2024/01/08 03:17:24;;;;;;;;;;;;;;;;;;5081428;28;1132;-67
2024/01/08 03:19:49;;;;;;;;;;;;;;;;;;5087928;28;1144;-66
2024/01/08 03:22:14;;;;;;;;;;;;;;;;;;5073970;28;1156;-67
2024/01/08 03:24:40;;;;;;;;;;;;;;;;;;5081609;28;1163;-67
2024/01/08 03:27:05;;;;;;;;;;;;;;;;;;5096832;28;1899;-65
2024/01/08 03:29:30;;;;;;;;;;;;;;;;;;5096992;28;895;-65
2024/01/08 03:31:56;;;;;;;;;;;;;;;;;;5096474;28;867;-65
2024/01/08 03:34:21;;;;;;;;;;;;;;;;;;5097068;28;963;-65
2024/01/08 03:36:49;;;;;;;;;;;;;;;;;;5097018;28;829;-68
2024/01/08 03:39:15;;;;;;;;;;;;;;;;;;5096555;28;1009;-67
2024/01/08 03:41:41;;;;;;;;;;;;;;;;;;5096218;28;890;-67
2024/01/08 03:44:07;;;;;;;;;;;;;;;;;;5095739;28;940;-67
2024/01/08 03:46:32;;;;;;;;;;;;;;;;;;5095786;28;1953;-66
2024/01/08 03:48:58;;;;;;;;;;;;;;;;;;5094929;28;2540;-67
2024/01/08 03:51:23;;;;;;;;;;;;;;;;;;5096050;28;852;-67
2024/01/08 03:53:48;;;;;;;;;;;;;;;;;;5096140;28;1094;-67
2024/01/08 03:56:14;;;;;;;;;;;;;;;;;;5096028;28;965;-67
2024/01/08 03:58:39;;;;;;;;;;;;;;;;;;5096127;28;955;-67
2024/01/08 04:01:04;;;;;;;;;;;;;;;;;;5096623;28;844;-68
2024/01/08 04:03:30;;;;;;;;;;;;;;;;;;5095218;28;892;-68
2024/01/08 04:05:55;;;;;;;;;;;;;;;;;;5095896;28;1901;-67
2024/01/08 04:08:20;;;;;;;;;;;;;;;;;;5096106;28;887;-68
2024/01/08 04:10:45;;;;;;;;;;;;;;;;;;5095671;28;1073;-69
2024/01/08 04:13:11;;;;;;;;;;;;;;;;;;5095647;28;1046;-68
2024/01/08 04:15:36;;;;;;;;;;;;;;;;;;5096007;28;840;-67
2024/01/08 04:18:01;;;;;;;;;;;;;;;;;;5095491;28;840;-68
2024/01/08 04:20:27;;;;;;;;;;;;;;;;;;5095026;28;947;-67
2024/01/08 04:22:52;;;;;;;;;;;;;;;;;;5095603;28;963;-66
2024/01/08 04:25:17;;;;;;;;;;;;;;;;;;5095155;28;967;-68
2024/01/08 04:27:42;;;;;;;;;;;;;;;;;;5095769;28;1898;-68
2024/01/08 04:30:08;;;;;;;;;;;;;;;;;;5095612;28;864;-67
2024/01/08 04:32:34;;;;;;;;;;;;;;;;;;5095265;28;903;-68
2024/01/08 04:34:59;;;;;;;;;;;;;;;;;;5095540;28;986;-67
2024/01/08 04:37:24;;;;;;;;;;;;;;;;;;5095498;28;1055;-68
2024/01/08 04:39:50;;;;;;;;;;;;;;;;;;5094277;28;911;-66
2024/01/08 04:42:15;;;;;;;;;;;;;;;;;;5095338;28;916;-65
2024/01/08 04:44:40;;;;;;;;;;;;;;;;;;5094025;28;887;-65
2024/01/08 04:47:07;;;;;;;;;;;;;;;;;;5095421;28;1902;-65
2024/01/08 04:49:32;;;;;;;;;;;;;;;;;;5095458;28;850;-64
2024/01/08 04:51:57;;;;;;;;;;;;;;;;;;5094394;28;1533;-65
2024/01/08 04:54:22;;;;;;;;;;;;;;;;;;5095496;28;917;-64
2024/01/08 04:56:48;;;;;;;;;;;;;;;;;;5095094;28;1096;-64
2024/01/08 04:59:13;;;;;;;;;;;;;;;;;;5095678;28;916;-67
2024/01/08 05:01:38;;;;;;;;;;;;;;;;;;5095390;28;982;-67
2024/01/08 05:04:05;;;;;;;;;;;;;;;;;;5093662;28;1030;-67
2024/01/08 05:06:31;;;;;;;;;;;;;;;;;;5094453;28;1965;-68
2024/01/08 05:08:56;;;;;;;;;;;;;;;;;;5078612;28;1218;-68
2024/01/08 05:11:22;;;;;;;;;;;;;;;;;;5078435;28;1156;-68
2024/01/08 05:13:47;;;;;;;;;;;;;;;;;;5085116;28;1223;-68
2024/01/08 05:16:12;;;;;;;;;;;;;;;;;;5081320;28;1152;-68
2024/01/08 05:18:37;;;;;;;;;;;;;;;;;;5084197;28;1304;-68
2024/01/08 05:21:03;;;;;;;;;;;;;;;;;;5081106;28;1215;-68
2024/01/08 05:23:29;;;;;;;;;;;;;;;;;;5081631;28;1234;-67
2024/01/08 05:25:58;;;;;;;;;;;;;;;;;;5088466;28;1909;-68
2024/01/08 05:28:24;;;;;;;;;;;;;;;;;;5087333;28;1249;-67
2024/01/08 05:30:49;;;;;;;;;;;;;;;;;;5089444;28;1214;-68
2024/01/08 05:33:14;;;;;;;;;;;;;;;;;;5080161;28;1163;-67
2024/01/08 05:35:40;;;;;;;;;;;;;;;;;;5073158;28;1180;-67
2024/01/08 05:38:05;;;;;;;;;;;;;;;;;;5073447;28;1159;-67
2024/01/08 05:40:31;;;;;;;;;;;;;;;;;;5074043;28;829;-67
2024/01/08 05:42:56;;;;;;;;;;;;;;;;;;5074268;28;1030;-67
2024/01/08 05:45:21;;;;;;;;;;;;;;;;;;5074093;28;1003;-68
2024/01/08 05:47:47;;;;;;;;;;;;;;;;;;5074087;28;1891;-69
2024/01/08 05:50:13;;;;;;;;;;;;;;;;;;5073568;28;919;-67
2024/01/08 05:52:38;;;;;;;;;;;;;;;;;;5074382;28;927;-68
2024/01/08 05:55:03;;;;;;;;;;;;;;;;;;5072560;28;1082;-67
2024/01/08 05:57:29;;;;;;;;;;;;;;;;;;5073644;28;987;-67
2024/01/08 05:59:54;;;;;;;;;;;;;;;;;;5073494;28;856;-66
2024/01/08 06:02:19;;;;;;;;;;;;;;;;;;5073933;28;944;-67
2024/01/08 06:04:45;;;;;;;;;;;;;;;;;;5074006;28;919;-67
2024/01/08 06:07:10;;;;;;;;;;;;;;;;;;5073875;28;1902;-68
2024/01/08 06:09:35;;;;;;;;;;;;;;;;;;5073687;28;1073;-67
2024/01/08 06:12:00;;;;;;;;;;;;;;;;;;5073624;28;895;-67
2024/01/08 06:14:26;;;;;;;;;;;;;;;;;;5073614;28;895;-66
2024/01/08 06:16:51;;;;;;;;;;;;;;;;;;5073337;28;919;-67
2024/01/08 06:19:17;;;;;;;;;;;;;;;;;;5074153;28;844;-68
2024/01/08 06:21:42;;;;;;;;;;;;;;;;;;5073583;28;868;-68
2024/01/08 06:24:07;;;;;;;;;;;;;;;;;;5074369;28;797;-68
2024/01/08 06:26:33;;;;;;;;;;;;;;;;;;5073799;28;1959;-67
2024/01/08 06:28:59;;;;;;;;;;;;;;;;;;5077976;28;978;-65
2024/01/08 06:31:24;;;;;;;;;;;;;;;;;;5077927;28;939;-66
2024/01/08 06:33:49;;;;;;;;;;;;;;;;;;5077701;28;930;-65
2024/01/08 06:36:15;;;;;;;;;;;;;;;;;;5078079;28;883;-65
2024/01/08 06:38:40;;;;;;;;;;;;;;;;;;5077567;28;829;-65
2024/01/08 06:41:05;;;;;;;;;;;;;;;;;;5077640;28;923;-65
2024/01/08 06:43:30;;;;;;;;;;;;;;;;;;5077239;28;857;-65
2024/01/08 06:45:56;;;;;;;;;;;;;;;;;;5077271;28;1969;-67
2024/01/08 06:48:21;;;;;;;;;;;;;;;;;;5077758;28;918;-68
2024/01/08 06:50:46;;;;;;;;;;;;;;;;;;5077326;28;1054;-63
2024/01/08 06:53:11;;;;;;;;;;;;;;;;;;5076081;28;919;-65
2024/01/08 06:55:37;;;;;;;;;;;;;;;;;;5077060;28;937;-65
2024/01/08 06:58:02;;;;;;;;;;;;;;;;;;5077251;28;891;-65
2024/01/08 07:00:28;;;;;;;;;;;;;;;;;;5077277;28;845;-65
2024/01/08 07:02:53;;;;;;;;;;;;;;;;;;5077435;28;840;-65
2024/01/08 07:05:19;;;;;;;;;;;;;;;;;;5077104;28;987;-65
2024/01/08 07:07:44;;;;;;;;;;;;;;;;;;5076730;28;1917;-64
2024/01/08 07:10:09;;;;;;;;;;;;;;;;;;5077099;28;958;-65
2024/01/08 07:12:35;;;;;;;;;;;;;;;;;;5075256;28;1155;-66
2024/01/08 07:15:00;;;;;;;;;;;;;;;;;;5076809;28;817;-65
2024/01/08 07:17:25;;;;;;;;;;;;;;;;;;5076709;28;967;-65
2024/01/08 07:19:50;;;;;;;;;;;;;;;;;;5076946;28;951;-66
2024/01/08 07:22:16;;;;;;;;;;;;;;;;;;5076472;28;829;-66
2024/01/08 07:24:42;;;;;;;;;;;;;;;;;;5076995;28;996;-65
2024/01/08 07:27:07;;;;;;;;;;;;;;;;;;5076683;28;1972;-66
2024/01/08 07:29:33;;;;;;;;;;;;;;;;;;5076939;28;876;-66
2024/01/08 07:31:58;;;;;;;;;;;;;;;;;;5076389;28;927;-65
2024/01/08 07:34:23;;;;;;;;;;;;;;;;;;5076226;28;999;-65
2024/01/08 07:36:49;;;;;;;;;;;;;;;;;;5076456;28;987;-65
2024/01/08 07:39:17;;;;;;;;;;;;;;;;;;5075519;28;885;-65
2024/01/08 07:41:43;;;;;;;;;;;;;;;;;;5074972;28;1285;-64
2024/01/08 07:44:08;;;;;;;;;;;;;;;;;;5076327;28;916;-65
2024/01/08 07:46:33;;;;;;;;;;;;;;;;;;5076579;28;1969;-65
2024/01/08 07:48:58;;;;;;;;;;;;;;;;;;5076465;28;963;-65
2024/01/08 07:51:24;;;;;;;;;;;;;;;;;;5076066;28;817;-65
2024/01/08 07:53:51;;;;;;;;;;;;;;;;;;5076350;28;1039;-66
2024/01/08 07:56:16;;;;;;;;;;;;;;;;;;5076721;28;980;-64
2024/01/08 07:58:42;;;;;;;;;;;;;;;;;;5076484;28;1214;-65
2024/01/08 08:01:12;;;;;;;;;;;;;;;;;;5076688;28;963;-65
2024/01/08 08:03:38;;;;;;;;;;;;;;;;;;5076616;28;895;-65
2024/01/08 08:06:03;;;;;;;;;;;;;;;;;;5076569;28;1913;-65
2024/01/08 08:08:31;;;;;;;;;;;;;;;;;;5075038;28;1396;-65
2024/01/08 08:10:57;;;;;;;;;;;;;;;;;;5076532;28;992;-66
2024/01/08 08:13:23;;;;;;;;;;;;;;;;;;5076971;28;832;-65
2024/01/08 08:15:48;;;;;;;;;;;;;;;;;;5076801;28;1002;-66
2024/01/08 08:18:13;;;;;;;;;;;;;;;;;;5075905;28;895;-66
2024/01/08 08:20:39;;;;;;;;;;;;;;;;;;5074471;28;1206;-66
2024/01/08 08:23:04;;;;;;;;;;;;;;;;;;5075086;28;1009;-66
2024/01/08 08:25:29;;;;;;;;;;;;;;;;;;5075674;28;844;-66
2024/01/08 08:27:54;;;;;;;;;;;;;;;;;;5075794;28;1894;-65
2024/01/08 08:30:22;;;;;;;;;;;;;;;;;;5075731;28;898;-65
2024/01/08 09:21:08;;;;;;;;;;;;;;;;;;5021708;28;1604;-66
2024/01/08 09:23:33;;;;;;;;;;;;;;;;;;5072988;23;3638;-65
2024/01/08 09:25:59;;;;;;;;;;;;;;;;;;5015488;28;1249;-65
2024/01/08 09:28:24;;;;;;;;;;;;;;;;;;5032254;28;857;-66
2024/01/08 09:30:50;;;;;;;;;;;;;;;;;;5016940;28;1342;-65
2024/01/08 09:33:15;;;;;;;;;;;;;;;;;;5033565;28;1254;-65
2024/01/08 09:35:41;;;;;;;;;;;;;;;;;;5034554;28;971;-65
2024/01/08 09:38:07;;;;;;;;;;;;;;;;;;5033867;28;1902;-66
2024/01/08 09:40:32;;;;;;;;;;;;;;;;;;5034964;28;865;-65
2024/01/08 09:43:04;;;;;;;;;;;;;;;;;;5034937;28;1060;-65
2024/01/08 09:45:29;;;;;;;;;;;;;;;;;;5035370;28;907;-66
2024/01/08 09:47:55;;;;;;;;;;;;;;;;;;5035081;28;905;-66
2024/01/08 09:50:21;;;;;;;;;;;;;;;;;;5035611;28;902;-66
2024/01/08 09:52:49;;;;;;;;;;;;;;;;;;5035690;28;974;-66
2024/01/08 09:55:15;;;;;;;;;;;;;;;;;;5034721;28;880;-66
2024/01/08 09:57:41;;;;;;;;;;;;;;;;;;5035531;28;1915;-65
2024/01/08 10:00:07;;;;;;;;;;;;;;;;;;5035164;28;1000;-66
2024/01/08 10:02:32;;;;;;;;;;;;;;;;;;5034982;28;916;-65
2024/01/08 10:04:57;;;;;;;;;;;;;;;;;;5035207;28;904;-65
2024/01/08 10:07:23;;;;;;;;;;;;;;;;;;5016881;28;1115;-66
2024/01/08 10:09:49;;;;;;;;;;;;;;;;;;5034268;28;1067;-65
2024/01/08 10:12:14;;;;;;;;;;;;;;;;;;5034809;28;873;-66
2024/01/08 10:14:40;;;;;;;;;;;;;;;;;;5033580;28;845;-65
2024/01/08 10:17:06;;;;;;;;;;;;;;;;;;5034824;28;1957;-67
2024/01/08 10:19:31;;;;;;;;;;;;;;;;;;5035333;28;864;-66
2024/01/08 10:22:08;;;;;;;;;;;;;;;;;;5033658;28;959;-66
2024/01/08 10:24:34;;;;;;;;;;;;;;;;;;5033706;28;1274;-66
2024/01/08 10:26:59;;;;;;;;;;;;;;;;;;5034571;28;904;-66
2024/01/08 10:29:25;;;;;;;;;;;;;;;;;;5033077;28;1294;-64
2024/01/08 10:31:50;;;;;;;;;;;;;;;;;;5034084;28;959;-65
2024/01/08 10:34:16;;;;;;;;;;;;;;;;;;5034074;28;928;-65
2024/01/08 10:36:42;;;;;;;;;;;;;;;;;;5033851;28;1965;-66
2024/01/08 10:39:08;;;;;;;;;;;;;;;;;;5034497;28;809;-66
2024/01/08 10:41:33;;;;;;;;;;;;;;;;;;5032625;28;845;-65
2024/01/08 10:43:59;;;;;;;;;;;;;;;;;;5016464;28;1173;-66
2024/01/08 10:46:27;;;;;;;;;;;;;;;;;;5033607;28;829;-66
2024/01/08 10:48:52;;;;;;;;;;;;;;;;;;5033839;28;904;-66
2024/01/08 10:51:18;;;;;;;;;;;;;;;;;;5015854;28;1302;-65
2024/01/08 10:53:47;;;;;;;;;;;;;;;;;;5032752;28;1331;-65
2024/01/08 10:56:14;;;;;;;;;;;;;;;;;;5016002;28;1898;-65
2024/01/08 10:58:43;;;;;;;;;;;;;;;;;;5032014;28;864;-65
2024/01/08 11:01:08;;;;;;;;;;;;;;;;;;5032815;28;888;-67
2024/01/08 11:03:35;;;;;;;;;;;;;;;;;;5033205;28;916;-65
2024/01/08 11:06:03;;;;;;;;;;;;;;;;;;5033360;28;869;-66
2024/01/08 11:08:31;;;;;;;;;;;;;;;;;;5033602;28;904;-65
2024/01/08 11:11:04;;;;;;;;;;;;;;;;;;5015852;28;1216;-65
2024/01/08 11:13:30;;;;;;;;;;;;;;;;;;5034899;28;900;-65
2024/01/08 11:15:56;;;;;;;;;;;;;;;;;;5018804;28;1360;-65
2024/01/08 11:18:30;;;;;;;;;;;;;;;;;;5037246;28;916;-65
2024/01/08 11:20:56;;;;;;;;;;;;;;;;;;5035703;28;1140;-67
2024/01/08 11:23:43;;;;;;;;;;;;;;;;;;5018786;28;1523;-66
2024/01/08 11:26:21;;;;;;;;;;;;;;;;;;5019627;28;1194;-65
2024/01/08 11:29:03;;;;;;;;;;;;;;;;;;5037100;28;873;-66
2024/01/08 11:31:28;;;;;;;;;;;;;;;;;;5037557;28;849;-65
2024/01/08 11:34:03;;;;;;;;;;;;;;;;;;5036992;28;958;-65
2024/01/08 11:36:40;;;;;;;;;;;;;;;;;;5037108;28;1905;-67
2024/01/08 11:39:13;;;;;;;;;;;;;;;;;;5037198;28;841;-65
2024/01/08 11:41:39;;;;;;;;;;;;;;;;;;5036878;28;957;-65
2024/01/08 11:44:04;;;;;;;;;;;;;;;;;;5035301;28;1916;-64
2024/01/08 11:46:31;;;;;;;;;;;;;;;;;;5037057;28;1055;-65
2024/01/08 11:48:56;;;;;;;;;;;;;;;;;;5017392;28;1192;-65
2024/01/08 12:58:25;;;;;;;;;;;;;;;;;;5078087;23;1969;-79
2024/01/08 13:00:50;;;;;;;;;;;;;;;;;;5056218;28;1148;-79
2024/01/08 13:03:16;;;;;;;;;;;;;;;;;;5061669;28;1235;-78
2024/01/08 13:05:42;;;;;;;;;;;;;;;;;;5061292;28;1153;-78
2024/01/08 13:08:08;;;;;;;;;;;;;;;;;;5058802;28;1215;-79
2024/01/08 13:10:33;;;;;;;;;;;;;;;;;;5046017;28;1300;-77
2024/01/08 13:12:59;;;;;;;;;;;;;;;;;;5044524;28;1255;-79
2024/01/08 13:15:25;;;;;;;;;;;;;;;;;;5067861;28;1251;-79
2024/01/08 13:17:50;;;;;;;;;;;;;;;;;;5051677;28;1918;-79
2024/01/08 13:20:16;;;;;;;;;;;;;;;;;;5052848;28;1095;-79
2024/01/08 13:22:41;;;;;;;;;;;;;;;;;;5033574;28;1387;-79
2024/01/08 13:25:09;;;;;;;;;;;;;;;;;;5052492;28;1165;-78
2024/01/08 13:27:35;;;;;;;;;;;;;;;;;;5035174;28;1232;-77
2024/01/08 13:30:00;;;;;;;;;;;;;;;;;;5034180;28;1240;-77
2024/01/08 13:32:26;;;;;;;;;;;;;;;;;;5056363;28;1270;-78
2024/01/08 13:34:51;;;;;;;;;;;;;;;;;;5048628;28;1615;-78
2024/01/08 13:37:16;;;;;;;;;;;;;;;;;;5050821;28;1993;-78
2024/01/08 13:39:42;;;;;;;;;;;;;;;;;;5051516;28;1177;-78
2024/01/08 13:42:07;;;;;;;;;;;;;;;;;;5051554;28;1129;-79
2024/01/08 13:44:32;;;;;;;;;;;;;;;;;;5051953;28;1090;-80
2024/01/08 13:47:00;;;;;;;;;;;;;;;;;;5050301;28;1255;-82
2024/01/08 13:49:26;;;;;;;;;;;;;;;;;;5051715;28;1165;-78
2024/01/08 13:51:51;;;;;;;;;;;;;;;;;;5051061;28;1172;-77
2024/01/08 13:54:16;;;;;;;;;;;;;;;;;;5035841;28;1357;-77
2024/01/08 13:56:42;;;;;;;;;;;;;;;;;;5047645;28;1906;-77
2024/01/08 13:59:07;;;;;;;;;;;;;;;;;;5053980;28;828;-77
2024/01/08 14:01:32;;;;;;;;;;;;;;;;;;5052447;28;1187;-78
2024/01/08 14:03:57;;;;;;;;;;;;;;;;;;5053748;28;833;-77
2024/01/08 14:06:22;;;;;;;;;;;;;;;;;;5052480;28;1311;-77
2024/01/08 14:08:48;;;;;;;;;;;;;;;;;;5052507;28;1342;-77
2024/01/08 14:11:13;;;;;;;;;;;;;;;;;;5053819;28;891;-77
2024/01/08 14:13:38;;;;;;;;;;;;;;;;;;5053335;28;1045;-77
2024/01/08 14:16:04;;;;;;;;;;;;;;;;;;5035937;28;1918;-78
2024/01/08 14:18:30;;;;;;;;;;;;;;;;;;5053455;28;1090;-78
2024/01/08 14:20:55;;;;;;;;;;;;;;;;;;5052034;28;1193;-79
2024/01/08 14:23:20;;;;;;;;;;;;;;;;;;5053626;28;852;-76
2024/01/08 14:25:45;;;;;;;;;;;;;;;;;;5053609;28;891;-77
2024/01/08 14:28:11;;;;;;;;;;;;;;;;;;5035481;28;1403;-77
2024/01/08 14:33:38;;;;;;;;;;;;;;;;;;5053634;28;678;-77
2024/01/08 14:36:05;;;;;;;;;;;;;;;;;;5053679;28;903;-77
2024/01/08 14:38:30;;;;;;;;;;;;;;;;;;5052060;28;1181;-77
2024/01/08 14:40:55;;;;;;;;;;;;;;;;;;5053152;28;1019;-77
2024/01/08 14:43:21;;;;;;;;;;;;;;;;;;5035359;28;1250;-76
2024/01/08 14:45:46;;;;;;;;;;;;;;;;;;5053090;28;947;-76
2024/01/08 14:48:12;;;;;;;;;;;;;;;;;;5036534;28;1401;-76
2024/01/08 14:50:37;;;;;;;;;;;;;;;;;;5055656;28;1275;-76
2024/01/08 14:53:04;;;;;;;;;;;;;;;;;;5057145;28;953;-77
2024/01/08 14:55:29;;;;;;;;;;;;;;;;;;5047340;28;1105;-76
2024/01/08 14:57:55;;;;;;;;;;;;;;;;;;5056914;28;1890;-76
2024/01/08 15:00:23;;;;;;;;;;;;;;;;;;5057407;28;847;-77
2024/01/08 15:02:48;;;;;;;;;;;;;;;;;;5055689;28;1167;-77
2024/01/08 15:05:14;;;;;;;;;;;;;;;;;;5056939;28;1053;-76
2024/01/08 15:07:39;;;;;;;;;;;;;;;;;;5057493;28;867;-77
2024/01/08 15:10:07;;;;;;;;;;;;;;;;;;5057741;28;816;-77
2024/01/08 15:12:32;;;;;;;;;;;;;;;;;;5057153;28;902;-77
2024/01/08 15:15:11;;;;;;;;;;;;;;;;;;5056302;28;1220;-77
2024/01/08 15:17:37;;;;;;;;;;;;;;;;;;5033407;28;1921;-76
2024/01/08 15:20:05;;;;;;;;;;;;;;;;;;5054821;28;1173;-76
2024/01/08 15:22:30;;;;;;;;;;;;;;;;;;5055551;28;1101;-77
2024/01/08 15:24:56;;;;;;;;;;;;;;;;;;5054967;28;1281;-77
2024/01/08 15:27:23;;;;;;;;;;;;;;;;;;5055078;28;1351;-77
2024/01/08 15:29:48;;;;;;;;;;;;;;;;;;5062995;28;1243;-77
2024/01/08 15:32:16;;;;;;;;;;;;;;;;;;5056310;28;902;-77
2024/01/08 15:34:41;;;;;;;;;;;;;;;;;;5055988;28;856;-78
2024/01/08 15:37:07;;;;;;;;;;;;;;;;;;5056695;28;1878;-77
2024/01/08 15:39:32;;;;;;;;;;;;;;;;;;5057288;28;819;-78
2024/01/08 15:41:57;;;;;;;;;;;;;;;;;;5056741;28;848;-77
2024/01/08 15:44:22;;;;;;;;;;;;;;;;;;5056664;28;1082;-77
2024/01/08 15:46:48;;;;;;;;;;;;;;;;;;5037630;28;1242;-76
2024/01/08 15:49:13;;;;;;;;;;;;;;;;;;5035428;28;1131;-76
2024/01/08 15:51:38;;;;;;;;;;;;;;;;;;5056986;28;864;-77
2024/01/08 15:54:05;;;;;;;;;;;;;;;;;;5056123;28;927;-76
2024/01/08 15:56:30;;;;;;;;;;;;;;;;;;5051655;28;1934;-77
2024/01/08 15:58:57;;;;;;;;;;;;;;;;;;5037998;28;1802;-77
2024/01/08 16:01:23;;;;;;;;;;;;;;;;;;5047923;28;1240;-77
2024/01/08 16:03:48;;;;;;;;;;;;;;;;;;5049912;28;1033;-78
2024/01/08 16:06:13;;;;;;;;;;;;;;;;;;5054353;28;1006;-75
2024/01/08 16:08:39;;;;;;;;;;;;;;;;;;5055738;28;816;-75
2024/01/08 16:11:04;;;;;;;;;;;;;;;;;;5055852;28;816;-76
2024/01/08 16:13:30;;;;;;;;;;;;;;;;;;5050490;28;860;-76
2024/01/08 16:15:56;;;;;;;;;;;;;;;;;;5054071;28;1670;-76
2024/01/08 16:18:21;;;;;;;;;;;;;;;;;;5055531;28;1958;-75
2024/01/08 16:20:48;;;;;;;;;;;;;;;;;;5055522;28;916;-76
2024/01/08 16:23:14;;;;;;;;;;;;;;;;;;5053995;28;1379;-75
2024/01/08 16:25:39;;;;;;;;;;;;;;;;;;5055358;28;840;-76
2024/01/08 16:28:04;;;;;;;;;;;;;;;;;;5055768;28;888;-76
2024/01/08 16:30:33;;;;;;;;;;;;;;;;;;5056129;28;1066;-76
2024/01/08 16:32:58;;;;;;;;;;;;;;;;;;5056571;28;836;-80
2024/01/08 16:35:23;;;;;;;;;;;;;;;;;;5056218;28;836;-78
2024/01/08 16:37:48;;;;;;;;;;;;;;;;;;5056521;28;1894;-80
2024/01/08 16:40:14;;;;;;;;;;;;;;;;;;5056052;28;910;-78
2024/01/08 16:42:39;;;;;;;;;;;;;;;;;;5055748;28;902;-76
2024/01/08 16:45:05;;;;;;;;;;;;;;;;;;5054015;28;1266;-75
2024/01/08 16:47:30;;;;;;;;;;;;;;;;;;5036868;28;1100;-75
2024/01/08 16:49:56;;;;;;;;;;;;;;;;;;5036791;28;1232;-75
2024/01/08 16:52:21;;;;;;;;;;;;;;;;;;5054617;28;840;-75
2024/01/08 16:54:46;;;;;;;;;;;;;;;;;;5053671;28;1253;-75
2024/01/08 16:57:13;;;;;;;;;;;;;;;;;;5055027;28;1894;-75
2024/01/08 16:59:39;;;;;;;;;;;;;;;;;;5055056;28;982;-75
2024/01/08 17:02:04;;;;;;;;;;;;;;;;;;5054420;28;781;-75
2024/01/08 17:04:29;;;;;;;;;;;;;;;;;;5052895;28;1187;-77
2024/01/08 17:06:54;;;;;;;;;;;;;;;;;;5053949;28;832;-76
2024/01/08 17:09:20;;;;;;;;;;;;;;;;;;5053269;28;1180;-74
2024/01/08 17:11:45;;;;;;;;;;;;;;;;;;5049929;28;1168;-75
2024/01/08 17:14:10;;;;;;;;;;;;;;;;;;5050161;28;1125;-75
2024/01/08 17:16:35;;;;;;;;;;;;;;;;;;5052555;28;1957;-75
2024/01/08 17:19:01;;;;;;;;;;;;;;;;;;5052558;28;1210;-75
2024/01/08 17:21:26;;;;;;;;;;;;;;;;;;5053848;28;915;-75
2024/01/08 17:23:51;;;;;;;;;;;;;;;;;;5052632;28;1344;-75
2024/01/08 17:26:17;;;;;;;;;;;;;;;;;;5052837;28;1317;-76
2024/01/08 17:28:43;;;;;;;;;;;;;;;;;;5052825;28;1422;-75
2024/01/08 17:31:08;;;;;;;;;;;;;;;;;;5035771;28;1596;-75
2024/01/08 17:33:34;;;;;;;;;;;;;;;;;;5053741;28;892;-75
2024/01/08 17:35:59;;;;;;;;;;;;;;;;;;5053900;28;923;-75
2024/01/08 17:38:24;;;;;;;;;;;;;;;;;;5054538;28;1909;-77
2024/01/08 17:40:49;;;;;;;;;;;;;;;;;;5055303;28;903;-77
2024/01/08 17:43:15;;;;;;;;;;;;;;;;;;5054859;28;863;-75
2024/01/08 17:45:40;;;;;;;;;;;;;;;;;;5053654;28;875;-75
2024/01/08 17:48:05;;;;;;;;;;;;;;;;;;5051907;28;1416;-76
2024/01/08 17:50:31;;;;;;;;;;;;;;;;;;5053906;28;1242;-75
2024/01/08 17:53:00;;;;;;;;;;;;;;;;;;5036016;28;1317;-75
2024/01/08 17:55:25;;;;;;;;;;;;;;;;;;5051955;28;1276;-75
2024/01/08 17:57:51;;;;;;;;;;;;;;;;;;5053600;28;1973;-75
2024/01/08 18:00:16;;;;;;;;;;;;;;;;;;5053903;28;754;-75
2024/01/08 18:02:43;;;;;;;;;;;;;;;;;;5036217;28;1276;-77
2024/01/08 18:05:08;;;;;;;;;;;;;;;;;;5053774;28;918;-77
2024/01/08 18:07:33;;;;;;;;;;;;;;;;;;5054294;28;895;-77
2024/01/08 18:09:58;;;;;;;;;;;;;;;;;;5036391;28;1435;-78
2024/01/08 18:12:26;;;;;;;;;;;;;;;;;;5052772;28;1296;-77
2024/01/08 18:14:51;;;;;;;;;;;;;;;;;;5052642;28;1179;-77
2024/01/08 18:17:17;;;;;;;;;;;;;;;;;;5053808;28;1957;-77
2024/01/08 18:19:42;;;;;;;;;;;;;;;;;;5036353;28;1352;-78
2024/01/08 18:22:08;;;;;;;;;;;;;;;;;;5053244;28;1222;-77
2024/01/08 18:24:35;;;;;;;;;;;;;;;;;;5054020;28;916;-77
2024/01/08 18:27:00;;;;;;;;;;;;;;;;;;5036480;28;1256;-77
2024/01/08 18:29:25;;;;;;;;;;;;;;;;;;5052960;28;1130;-77
2024/01/08 18:31:51;;;;;;;;;;;;;;;;;;5054398;28;1015;-77
2024/01/08 18:34:16;;;;;;;;;;;;;;;;;;5054347;28;890;-77
2024/01/08 18:36:42;;;;;;;;;;;;;;;;;;5052685;28;1905;-77
2024/01/08 18:39:08;;;;;;;;;;;;;;;;;;5054585;28;895;-77
2024/01/08 18:41:33;;;;;;;;;;;;;;;;;;5054500;28;832;-77
2024/01/08 18:43:59;;;;;;;;;;;;;;;;;;5054816;28;1046;-77
2024/01/08 18:46:24;;;;;;;;;;;;;;;;;;5055070;28;875;-77
2024/01/08 18:48:49;;;;;;;;;;;;;;;;;;5054612;28;907;-77
2024/01/08 18:51:14;;;;;;;;;;;;;;;;;;5035997;28;1258;-77
2024/01/08 18:53:40;;;;;;;;;;;;;;;;;;5054792;28;821;-78
2024/01/08 18:56:05;;;;;;;;;;;;;;;;;;5037738;28;1300;-78
2024/01/08 18:58:30;;;;;;;;;;;;;;;;;;5054753;28;1951;-78
2024/01/08 19:00:59;;;;;;;;;;;;;;;;;;5053402;28;1318;-78